Time;durP1;ratioP1;P1;durP2;ratioP2;P2;SDS_P1;SDS_P2;PMS_P1;PMS_P2;Temp;Humidity;BMP_temperature;BMP_pressure;BME280_temperature;BME280_humidity;BME280_pressure;Samples;Min_cycle;Max_cycle;Signal;HPM_P1;HPM_P2
2023/09/02 00:00:38;;;;;;;18.50;15.90;;;18.80;99.90;;;;;;5085495;28;20083;-36
2023/09/02 00:03:04;;;;;;;16.75;14.95;;;18.90;99.90;;;;;;5085132;28;20796;-35
2023/09/02 00:05:29;;;;;;;18.75;14.73;;;18.90;99.90;;;;;;5086477;28;20036;-37
2023/09/02 00:07:55;;;;;;;16.50;14.82;;;18.90;99.90;;;;;;5086167;28;20035;-36
2023/09/02 00:10:20;;;;;;;17.90;15.10;;;18.80;99.90;;;;;;5085959;28;20028;-37
2023/09/02 00:12:46;;;;;;;17.63;15.60;;;18.80;99.90;;;;;;5086398;28;20032;-36
2023/09/02 00:15:18;;;;;;;17.95;15.60;;;18.80;99.90;;;;;;5086112;28;20035;-36
2023/09/02 00:17:44;;;;;;;17.75;14.93;;;18.80;99.90;;;;;;5086409;28;20074;-35
2023/09/02 00:20:13;;;;;;;16.63;14.52;;;18.70;99.90;;;;;;5085843;28;20044;-36
2023/09/02 00:22:38;;;;;;;16.33;14.57;;;18.70;99.90;;;;;;5085624;28;20023;-36
2023/09/02 00:25:04;;;;;;;17.27;14.93;;;18.60;99.90;;;;;;5086260;28;20089;-37
2023/09/02 00:27:32;;;;;;;16.42;14.63;;;18.60;99.90;;;;;;5086042;28;20443;-37
2023/09/02 00:29:58;;;;;;;16.70;14.90;;;18.60;99.90;;;;;;5085073;28;20028;-35
2023/09/02 00:32:23;;;;;;;17.33;14.40;;;18.50;99.90;;;;;;5086420;28;20038;-35
2023/09/02 00:34:49;;;;;;;17.60;13.98;;;18.50;99.90;;;;;;5085872;28;20020;-35
2023/09/02 00:37:15;;;;;;;16.15;13.98;;;18.50;99.90;;;;;;5084568;28;20051;-36
2023/09/02 00:39:41;;;;;;;16.60;13.95;;;18.40;99.90;;;;;;5086018;28;20026;-35
2023/09/02 00:42:09;;;;;;;15.18;13.55;;;18.40;99.90;;;;;;5085278;28;20111;-43
2023/09/02 00:44:37;;;;;;;15.50;13.48;;;18.30;99.90;;;;;;5084900;28;20107;-36
2023/09/02 00:47:03;;;;;;;15.13;13.52;;;18.30;99.90;;;;;;5084970;28;20028;-37
2023/09/02 00:49:30;;;;;;;16.13;14.30;;;18.30;99.90;;;;;;5086008;28;20031;-37
2023/09/02 00:51:56;;;;;;;16.15;14.40;;;18.20;99.90;;;;;;5084805;28;20513;-37
2023/09/02 00:54:22;;;;;;;14.38;12.57;;;18.20;99.90;;;;;;5084870;28;20024;-36
2023/09/02 00:56:51;;;;;;;15.05;13.38;;;18.20;99.90;;;;;;5086596;28;20031;-36
2023/09/02 00:59:16;;;;;;;14.85;13.25;;;18.10;99.90;;;;;;5084470;28;20364;-35
2023/09/02 01:01:45;;;;;;;16.45;13.30;;;18.10;99.90;;;;;;5085552;28;20044;-35
2023/09/02 01:04:11;;;;;;;16.80;14.43;;;18.10;99.90;;;;;;5084780;28;20035;-36
2023/09/02 01:06:38;;;;;;;16.15;14.18;;;18.10;99.90;;;;;;5084225;28;20467;-35
2023/09/02 01:09:04;;;;;;;18.50;14.70;;;18.10;99.90;;;;;;5085149;28;20031;-36
2023/09/02 01:11:30;;;;;;;17.00;14.68;;;18.10;99.90;;;;;;5083650;28;20040;-36
2023/09/02 01:13:56;;;;;;;14.73;12.45;;;18.00;99.90;;;;;;5085202;28;20061;-36
2023/09/02 01:16:22;;;;;;;14.20;12.70;;;18.00;99.90;;;;;;5085486;28;20040;-36
2023/09/02 01:18:48;;;;;;;14.40;12.52;;;18.00;99.90;;;;;;5084076;28;20383;-36
2023/09/02 01:21:44;;;;;;;14.00;12.43;;;17.90;99.90;;;;;;5084927;28;20028;-38
2023/09/02 01:24:50;;;;;;;14.57;13.00;;;17.90;99.90;;;;;;5084860;28;20366;-36
2023/09/02 01:27:37;;;;;;;15.77;13.25;;;17.90;99.90;;;;;;5084169;28;20361;-39
2023/09/02 01:30:24;;;;;;;12.95;11.65;;;17.90;99.90;;;;;;5084455;28;20174;-37
2023/09/02 01:32:53;;;;;;;14.05;12.55;;;17.90;99.90;;;;;;5064417;28;20028;-36
2023/09/02 01:35:27;;;;;;;13.60;12.07;;;18.00;99.90;;;;;;5081296;28;20586;-35
2023/09/02 01:37:55;;;;;;;15.90;12.20;;;18.00;99.90;;;;;;5084774;28;20632;-37
2023/09/02 01:40:24;;;;;;;13.63;12.23;;;18.00;99.90;;;;;;5083571;28;20073;-37
2023/09/02 01:42:56;;;;;;;13.23;11.45;;;18.10;99.90;;;;;;5084793;28;20471;-37
2023/09/02 01:45:25;;;;;;;14.27;11.75;;;18.10;99.90;;;;;;5084473;28;20032;-35
2023/09/02 01:47:55;;;;;;;14.73;12.60;;;18.20;99.90;;;;;;5083968;28;20032;-36
2023/09/02 01:50:28;;;;;;;13.32;11.93;;;18.20;99.90;;;;;;5084393;28;20425;-37
2023/09/02 01:52:56;;;;;;;13.93;12.52;;;18.20;99.90;;;;;;5084883;28;20595;-38
2023/09/02 01:55:22;;;;;;;15.38;12.38;;;18.20;99.90;;;;;;5083298;28;20028;-36
2023/09/02 01:57:48;;;;;;;15.55;12.75;;;18.20;99.90;;;;;;5085151;28;20043;-36
2023/09/02 02:00:14;;;;;;;13.85;12.38;;;18.30;99.90;;;;;;5083866;28;20066;-41
2023/09/02 02:02:41;;;;;;;13.73;12.10;;;18.30;99.90;;;;;;5084277;28;20028;-37
2023/09/02 02:05:11;;;;;;;14.93;12.70;;;18.30;99.90;;;;;;5084875;28;20081;-36
2023/09/02 02:07:40;;;;;;;14.02;12.50;;;18.40;99.90;;;;;;5083963;28;20032;-35
2023/09/02 02:10:11;;;;;;;14.63;12.30;;;18.30;99.90;;;;;;5084293;28;20023;-36
2023/09/02 02:12:41;;;;;;;14.23;12.30;;;18.30;99.90;;;;;;5065246;28;20040;-37
2023/09/02 02:15:10;;;;;;;13.52;11.35;;;18.30;99.90;;;;;;5067081;28;20687;-36
2023/09/02 02:17:37;;;;;;;13.90;10.73;;;18.40;99.90;;;;;;5084893;28;20020;-35
2023/09/02 02:20:03;;;;;;;13.75;11.68;;;18.40;99.90;;;;;;5083885;28;20475;-37
2023/09/02 02:22:28;;;;;;;14.63;11.55;;;18.40;99.90;;;;;;5085395;28;20032;-37
2023/09/02 02:24:54;;;;;;;13.57;11.68;;;18.40;99.90;;;;;;5088912;28;20043;-35
2023/09/02 02:27:20;;;;;;;13.38;11.18;;;18.40;99.90;;;;;;5087855;28;20032;-35
2023/09/02 02:29:45;;;;;;;13.73;11.27;;;18.40;99.90;;;;;;5088165;28;20029;-36
2023/09/02 02:32:11;;;;;;;13.38;11.82;;;18.40;99.90;;;;;;5087714;28;20032;-36
2023/09/02 02:34:37;;;;;;;14.50;12.38;;;18.40;99.90;;;;;;5088703;28;20053;-36
2023/09/02 02:37:03;;;;;;;13.30;11.13;;;18.40;99.90;;;;;;5087215;28;20119;-34
2023/09/02 02:39:29;;;;;;;15.25;12.70;;;18.40;99.90;;;;;;5088757;28;20028;-36
2023/09/02 02:41:54;;;;;;;16.42;12.27;;;18.40;99.90;;;;;;5087816;28;20635;-36
2023/09/02 02:44:20;;;;;;;15.02;11.88;;;18.40;99.90;;;;;;5086731;28;20097;-35
2023/09/02 02:46:47;;;;;;;18.08;13.52;;;18.40;99.90;;;;;;5088359;28;20035;-36
2023/09/02 02:49:12;;;;;;;16.55;12.40;;;18.40;99.90;;;;;;5087286;28;20039;-37
2023/09/02 02:51:38;;;;;;;18.80;13.43;;;18.40;99.90;;;;;;5087299;28;20039;-36
2023/09/02 02:54:04;;;;;;;17.13;12.30;;;18.40;99.90;;;;;;5087940;28;20107;-37
2023/09/02 02:56:29;;;;;;;17.70;13.25;;;18.40;99.90;;;;;;5087713;28;20024;-37
2023/09/02 02:58:55;;;;;;;18.83;13.50;;;18.50;99.90;;;;;;5087107;28;20016;-36
2023/09/02 03:01:21;;;;;;;19.45;13.13;;;18.50;99.90;;;;;;5087625;28;20081;-36
2023/09/02 03:03:52;;;;;;;16.42;12.45;;;18.50;99.90;;;;;;5087785;28;20016;-36
2023/09/02 03:06:21;;;;;;;17.88;11.93;;;18.40;99.90;;;;;;5086900;28;20032;-36
2023/09/02 03:08:50;;;;;;;16.25;12.32;;;18.40;99.90;;;;;;5087577;28;20044;-36
2023/09/02 03:11:15;;;;;;;17.65;13.18;;;18.40;99.90;;;;;;5086241;28;20024;-36
2023/09/02 03:13:41;;;;;;;16.30;12.60;;;18.40;99.90;;;;;;5087555;28;20202;-37
2023/09/02 03:16:06;;;;;;;17.30;13.30;;;18.40;99.90;;;;;;5087570;28;20755;-35
2023/09/02 03:18:40;;;;;;;19.20;13.52;;;18.50;99.90;;;;;;5086482;28;20035;-36
2023/09/02 03:21:07;;;;;;;17.40;12.65;;;18.50;99.90;;;;;;5086685;28;20054;-36
2023/09/02 03:23:34;;;;;;;16.38;12.93;;;18.40;99.90;;;;;;5087340;28;20063;-36
2023/09/02 03:26:10;;;;;;;15.55;11.77;;;18.50;99.90;;;;;;5086006;28;20032;-37
2023/09/02 03:28:36;;;;;;;17.17;12.38;;;18.40;99.90;;;;;;5086941;28;20816;-34
2023/09/02 03:31:08;;;;;;;15.82;12.23;;;18.40;99.90;;;;;;5087069;28;20059;-36
2023/09/02 03:33:34;;;;;;;16.35;11.98;;;18.50;99.90;;;;;;5086605;28;20073;-37
2023/09/02 03:36:03;;;;;;;16.50;11.90;;;18.40;99.90;;;;;;5086220;28;20471;-37
2023/09/02 03:38:29;;;;;;;16.23;12.77;;;18.40;99.90;;;;;;5087953;28;20020;-37
2023/09/02 03:40:55;;;;;;;15.07;12.45;;;18.40;99.90;;;;;;5086731;28;20030;-36
2023/09/02 03:43:20;;;;;;;16.80;13.10;;;18.40;99.90;;;;;;5086557;28;20361;-37
2023/09/02 03:45:48;;;;;;;17.65;12.27;;;18.40;99.90;;;;;;5087314;28;20499;-37
2023/09/02 03:48:20;;;;;;;17.02;12.75;;;18.40;99.90;;;;;;5085581;28;20032;-37
2023/09/02 03:51:05;;;;;;;17.48;12.95;;;18.40;99.90;;;;;;5087348;28;20031;-34
2023/09/02 03:53:32;;;;;;;16.10;13.20;;;18.40;99.90;;;;;;5086739;28;20018;-36
2023/09/02 03:55:58;;;;;;;17.42;12.23;;;18.40;99.90;;;;;;5086749;28;20053;-35
2023/09/02 03:58:28;;;;;;;16.67;12.52;;;18.40;99.90;;;;;;5085981;28;20028;-35
2023/09/02 04:00:54;;;;;;;17.40;13.18;;;18.40;99.90;;;;;;5085891;28;20079;-36
2023/09/02 04:03:21;;;;;;;14.45;11.95;;;18.40;99.90;;;;;;5085611;28;20819;-36
2023/09/02 04:05:48;;;;;;;18.10;12.63;;;18.40;99.90;;;;;;5085123;28;20042;-35
2023/09/02 04:08:17;;;;;;;15.27;11.70;;;18.40;99.90;;;;;;5085736;28;20095;-37
2023/09/02 04:10:43;;;;;;;15.75;12.25;;;18.40;99.90;;;;;;5085869;28;20071;-35
2023/09/02 04:13:08;;;;;;;15.35;11.43;;;18.40;99.90;;;;;;5086111;28;20508;-37
2023/09/02 04:15:34;;;;;;;16.05;12.60;;;18.40;99.90;;;;;;5085661;28;20032;-37
2023/09/02 04:18:00;;;;;;;14.68;11.55;;;18.40;99.90;;;;;;5085980;28;20104;-37
2023/09/02 04:20:28;;;;;;;16.63;12.32;;;18.40;99.90;;;;;;5086082;28;20057;-35
2023/09/02 04:22:54;;;;;;;16.08;11.73;;;18.40;99.90;;;;;;5085138;28;20119;-35
2023/09/02 04:25:19;;;;;;;14.38;11.05;;;18.40;99.90;;;;;;5085943;28;20107;-36
2023/09/02 04:27:46;;;;;;;14.07;10.88;;;18.40;99.90;;;;;;5086282;28;20430;-35
2023/09/02 04:30:12;;;;;;;12.68;10.43;;;18.40;99.90;;;;;;5085068;28;20032;-37
2023/09/02 04:32:38;;;;;;;17.35;11.63;;;18.50;99.90;;;;;;5086760;28;20020;-37
2023/09/02 04:35:04;;;;;;;17.52;11.35;;;18.40;99.90;;;;;;5085296;28;20534;-35
2023/09/02 04:37:33;;;;;;;14.48;11.38;;;18.50;99.90;;;;;;5085833;28;20383;-36
2023/09/02 04:39:58;;;;;;;15.65;11.98;;;18.40;99.90;;;;;;5086118;28;20026;-36
2023/09/02 04:42:24;;;;;;;19.13;12.93;;;18.40;99.90;;;;;;5085079;28;20036;-37
2023/09/02 04:44:50;;;;;;;18.35;12.88;;;18.50;99.90;;;;;;5086077;28;20151;-35
2023/09/02 04:47:16;;;;;;;17.63;12.48;;;18.50;99.90;;;;;;5085479;28;20104;-38
2023/09/02 04:49:41;;;;;;;18.80;12.80;;;18.50;99.90;;;;;;5085514;28;20907;-35
2023/09/02 04:52:07;;;;;;;23.83;12.52;;;18.40;99.90;;;;;;5085134;28;20050;-37
2023/09/02 04:54:33;;;;;;;19.58;12.55;;;18.40;99.90;;;;;;5086667;28;20371;-37
2023/09/02 04:56:58;;;;;;;17.52;12.63;;;18.40;99.90;;;;;;5084654;28;20398;-36
2023/09/02 04:59:24;;;;;;;19.25;12.68;;;18.40;99.90;;;;;;5085068;28;20028;-36
2023/09/02 05:01:49;;;;;;;20.40;13.05;;;18.40;99.90;;;;;;5085493;28;20169;-36
2023/09/02 05:04:15;;;;;;;18.83;14.23;;;18.40;99.90;;;;;;5084465;28;20123;-37
2023/09/02 05:06:40;;;;;;;20.80;13.10;;;18.40;99.90;;;;;;5085252;28;20581;-35
2023/09/02 05:09:06;;;;;;;17.67;12.15;;;18.40;99.90;;;;;;5084989;28;20110;-36
2023/09/02 05:11:32;;;;;;;14.55;11.60;;;18.40;99.90;;;;;;5084468;28;20115;-35
2023/09/02 05:13:57;;;;;;;21.35;13.50;;;18.40;99.90;;;;;;5085117;28;20028;-36
2023/09/02 05:16:23;;;;;;;21.13;13.50;;;18.50;99.90;;;;;;5085341;28;20032;-36
2023/09/02 05:18:49;;;;;;;19.38;13.55;;;18.50;99.90;;;;;;5085800;28;20021;-37
2023/09/02 05:21:15;;;;;;;21.85;13.93;;;18.50;99.90;;;;;;5085500;28;20051;-36
2023/09/02 05:23:40;;;;;;;19.83;13.77;;;18.50;99.90;;;;;;5085208;28;20646;-36
2023/09/02 05:26:09;;;;;;;19.27;13.35;;;18.50;99.90;;;;;;5083740;28;20034;-37
2023/09/02 05:28:34;;;;;;;18.15;12.95;;;18.50;99.90;;;;;;5083680;28;20016;-37
2023/09/02 05:31:03;;;;;;;18.73;13.02;;;18.50;99.90;;;;;;5084365;28;20039;-38
2023/09/02 05:33:28;;;;;;;19.55;12.93;;;18.50;99.90;;;;;;5084676;28;20036;-36
2023/09/02 05:35:55;;;;;;;15.23;12.38;;;18.50;99.90;;;;;;5084581;28;20050;-35
2023/09/02 05:38:27;;;;;;;20.30;12.35;;;18.50;99.90;;;;;;5083858;28;20032;-37
2023/09/02 05:40:52;;;;;;;15.30;11.73;;;18.50;99.90;;;;;;5084421;28;20042;-38
2023/09/02 05:43:24;;;;;;;14.40;12.02;;;18.50;99.90;;;;;;5083687;28;20456;-37
2023/09/02 05:45:50;;;;;;;16.17;11.15;;;18.50;99.90;;;;;;5084818;28;20039;-36
2023/09/02 05:48:16;;;;;;;12.85;10.15;;;18.50;99.90;;;;;;5084310;28;20020;-36
2023/09/02 05:50:42;;;;;;;24.05;10.63;;;18.50;99.90;;;;;;5084912;28;20399;-36
2023/09/02 05:53:08;;;;;;;14.20;10.73;;;18.40;99.90;;;;;;5083446;28;20452;-36
2023/09/02 05:55:34;;;;;;;12.60;10.50;;;18.40;99.90;;;;;;5084997;28;20028;-35
2023/09/02 05:58:00;;;;;;;11.65;9.88;;;18.40;99.90;;;;;;5083977;28;20012;-36
2023/09/02 06:00:25;;;;;;;22.80;9.65;;;18.40;99.90;;;;;;5083498;28;20043;-35
2023/09/02 06:03:00;;;;;;;13.68;10.27;;;18.40;99.90;;;;;;5084857;28;20026;-37
2023/09/02 06:05:26;;;;;;;17.75;9.98;;;18.40;99.90;;;;;;5074033;28;20463;-36
2023/09/02 06:07:57;;;;;;;9.40;8.15;;;18.40;99.90;;;;;;5084057;28;20035;-36
2023/09/02 06:10:23;;;;;;;9.55;8.55;;;18.50;99.90;;;;;;5084928;28;20431;-37
2023/09/02 06:12:48;;;;;;;11.88;8.93;;;18.50;99.90;;;;;;5084294;28;20540;-36
2023/09/02 06:15:17;;;;;;;9.75;8.15;;;18.50;99.90;;;;;;5083618;28;20023;-37
2023/09/02 06:17:43;;;;;;;12.27;9.55;;;18.50;99.90;;;;;;5084929;28;20032;-36
2023/09/02 06:20:09;;;;;;;13.90;9.45;;;18.50;99.90;;;;;;5083713;28;20008;-36
2023/09/02 06:22:34;;;;;;;9.25;8.30;;;18.60;99.90;;;;;;5084170;28;20024;-37
2023/09/02 06:25:00;;;;;;;12.77;9.52;;;18.60;99.90;;;;;;5083176;28;20020;-37
2023/09/02 06:27:26;;;;;;;10.57;9.35;;;18.60;99.90;;;;;;5084894;28;20024;-37
2023/09/02 06:29:51;;;;;;;8.63;7.82;;;18.60;99.90;;;;;;5083455;28;20065;-37
2023/09/02 06:32:17;;;;;;;10.20;8.40;;;18.70;99.90;;;;;;5084034;28;20570;-36
2023/09/02 06:34:42;;;;;;;13.23;8.75;;;18.70;99.90;;;;;;5084709;28;20428;-36
2023/09/02 06:37:08;;;;;;;11.23;9.10;;;18.70;99.90;;;;;;5083756;28;20107;-37
2023/09/02 06:39:33;;;;;;;9.20;8.30;;;18.70;99.90;;;;;;5084246;28;20599;-36
2023/09/02 06:41:59;;;;;;;11.43;9.68;;;18.60;99.90;;;;;;5083523;28;20028;-37
2023/09/02 06:44:25;;;;;;;9.57;8.57;;;18.70;99.90;;;;;;5084650;28;20095;-35
2023/09/02 06:46:50;;;;;;;11.45;8.95;;;18.70;99.90;;;;;;5084267;28;20024;-37
2023/09/02 06:49:19;;;;;;;10.20;9.02;;;18.70;99.90;;;;;;5082817;28;20024;-36
2023/09/02 06:51:44;;;;;;;9.45;8.45;;;18.70;99.90;;;;;;5084433;28;20040;-37
2023/09/02 06:54:10;;;;;;;10.88;8.75;;;18.70;99.90;;;;;;5083840;28;20020;-36
2023/09/02 06:56:35;;;;;;;10.13;9.02;;;18.70;99.90;;;;;;5084381;28;20283;-37
2023/09/02 06:59:01;;;;;;;10.55;9.20;;;18.70;99.90;;;;;;5083928;28;20040;-37
2023/09/02 07:01:27;;;;;;;9.73;8.70;;;18.70;99.90;;;;;;5083784;28;20044;-36
2023/09/02 07:03:55;;;;;;;10.18;9.07;;;18.80;99.90;;;;;;5083587;28;20081;-36
2023/09/02 07:06:23;;;;;;;10.32;8.93;;;18.80;99.90;;;;;;5083602;28;20559;-35
2023/09/02 07:08:49;;;;;;;11.60;9.43;;;18.80;99.90;;;;;;5064343;28;20016;-36
2023/09/02 07:11:15;;;;;;;10.25;9.02;;;18.80;99.90;;;;;;5080284;28;20038;-36
2023/09/02 07:13:46;;;;;;;10.88;9.23;;;18.80;99.90;;;;;;5087464;28;20060;-35
2023/09/02 07:16:12;;;;;;;10.15;8.93;;;18.80;99.90;;;;;;5087281;28;20097;-36
2023/09/02 07:18:37;;;;;;;9.52;8.40;;;18.80;99.90;;;;;;5087528;28;20028;-36
2023/09/02 07:21:05;;;;;;;9.93;8.52;;;18.80;99.90;;;;;;5086969;28;20031;-37
2023/09/02 07:23:33;;;;;;;12.25;9.70;;;18.90;99.90;;;;;;5087659;28;20474;-36
2023/09/02 07:26:01;;;;;;;12.30;10.15;;;18.90;99.90;;;;;;5085520;28;20023;-37
2023/09/02 07:28:30;;;;;;;12.02;10.05;;;18.90;99.90;;;;;;5087371;28;20032;-37
2023/09/02 07:31:01;;;;;;;10.70;8.90;;;18.90;99.90;;;;;;5087374;28;20119;-37
2023/09/02 07:33:30;;;;;;;11.13;9.63;;;19.00;99.90;;;;;;5086639;28;20061;-37
2023/09/02 07:35:57;;;;;;;9.70;8.02;;;19.00;99.90;;;;;;5075021;28;20616;-36
2023/09/02 07:38:23;;;;;;;11.52;9.65;;;19.00;99.90;;;;;;5086114;28;20093;-36
2023/09/02 07:40:49;;;;;;;11.50;9.35;;;19.10;99.90;;;;;;5086449;28;20032;-37
2023/09/02 07:43:14;;;;;;;13.55;10.20;;;19.10;99.90;;;;;;5086082;28;20145;-35
2023/09/02 07:45:40;;;;;;;12.35;10.35;;;19.10;99.90;;;;;;5086359;28;20020;-35
2023/09/02 07:48:06;;;;;;;14.10;10.02;;;19.10;99.90;;;;;;5085875;28;20070;-36
2023/09/02 07:50:31;;;;;;;12.73;10.75;;;19.20;99.90;;;;;;5086349;28;20059;-36
2023/09/02 07:52:57;;;;;;;13.50;10.68;;;19.20;99.90;;;;;;5085790;28;20036;-37
2023/09/02 07:55:24;;;;;;;13.55;10.77;;;19.30;99.90;;;;;;5086575;28;20032;-35
2023/09/02 07:57:50;;;;;;;11.07;9.52;;;19.30;99.90;;;;;;5086785;28;20059;-36
2023/09/02 08:00:16;;;;;;;10.95;9.13;;;19.30;99.90;;;;;;5085926;28;20914;-34
2023/09/02 08:02:41;;;;;;;11.50;8.77;;;19.40;99.90;;;;;;5085965;28;20440;-37
2023/09/02 08:05:07;;;;;;;11.75;9.25;;;19.50;99.90;;;;;;5085959;28;20511;-37
2023/09/02 08:07:33;;;;;;;12.38;10.15;;;19.50;99.90;;;;;;5086349;28;20020;-36
2023/09/02 08:09:58;;;;;;;12.00;10.02;;;19.50;99.90;;;;;;5086455;28;20419;-36
2023/09/02 08:12:24;;;;;;;11.52;9.25;;;19.50;99.90;;;;;;5085984;28;20040;-37
2023/09/02 08:14:49;;;;;;;10.80;9.38;;;19.50;99.90;;;;;;5086482;28;20486;-37
2023/09/02 08:17:16;;;;;;;11.40;9.60;;;19.50;99.90;;;;;;5086997;28;20031;-38
2023/09/02 08:19:42;;;;;;;9.55;8.55;;;19.50;99.90;;;;;;5086760;28;20831;-36
2023/09/02 08:22:12;;;;;;;10.77;8.52;;;19.50;99.90;;;;;;5084289;28;20035;-37
2023/09/02 08:24:37;;;;;;;10.85;9.30;;;19.40;99.90;;;;;;5086913;28;20024;-36
2023/09/02 08:27:03;;;;;;;11.88;10.45;;;19.40;99.90;;;;;;5085385;28;20116;-35
2023/09/02 08:29:29;;;;;;;13.48;10.00;;;19.40;99.90;;;;;;5084967;28;20059;-36
2023/09/02 08:31:56;;;;;;;11.63;10.13;;;19.40;99.90;;;;;;5085812;28;20040;-36
2023/09/02 08:34:22;;;;;;;11.52;9.57;;;19.50;99.90;;;;;;5085451;28;20383;-36
2023/09/02 08:36:47;;;;;;;12.63;10.50;;;19.60;99.90;;;;;;5085353;28;20043;-36
2023/09/02 08:39:13;;;;;;;11.48;9.77;;;19.70;99.90;;;;;;5085210;28;20024;-36
2023/09/02 08:41:41;;;;;;;13.10;9.75;;;19.80;99.90;;;;;;5085177;28;20070;-36
2023/09/02 08:44:08;;;;;;;11.88;9.30;;;19.90;99.90;;;;;;5085771;28;20363;-36
2023/09/02 08:46:40;;;;;;;11.02;9.65;;;20.10;99.90;;;;;;5086226;28;20039;-35
2023/09/02 08:49:05;;;;;;;9.48;8.48;;;20.10;99.90;;;;;;5084460;28;20111;-35
2023/09/02 08:51:33;;;;;;;10.70;9.38;;;20.20;99.90;;;;;;5085175;28;20032;-36
2023/09/02 08:54:00;;;;;;;14.98;11.38;;;20.20;99.90;;;;;;5085696;28;20012;-36
2023/09/02 08:56:26;;;;;;;12.82;10.70;;;20.20;99.90;;;;;;5085048;28;20471;-35
2023/09/02 08:58:54;;;;;;;12.48;10.82;;;20.30;99.90;;;;;;5085487;28;20016;-36
2023/09/02 09:01:21;;;;;;;11.88;10.00;;;20.40;99.90;;;;;;5085464;28;20101;-36
2023/09/02 09:03:52;;;;;;;13.60;11.38;;;20.40;99.90;;;;;;5085081;28;20019;-36
2023/09/02 09:06:21;;;;;;;10.85;9.38;;;20.40;99.90;;;;;;5085141;28;20034;-37
2023/09/02 09:08:48;;;;;;;9.73;8.73;;;20.40;99.90;;;;;;5085628;28;20020;-35
2023/09/02 09:11:17;;;;;;;9.57;8.57;;;20.40;99.90;;;;;;5083933;28;20071;-37
2023/09/02 09:13:52;;;;;;;10.77;9.60;;;20.50;99.90;;;;;;5085182;28;20074;-35
2023/09/02 09:16:26;;;;;;;10.00;7.85;;;20.60;99.90;;;;;;5081170;28;20028;-34
2023/09/02 09:18:52;;;;;;;10.82;9.52;;;20.70;99.90;;;;;;5085221;28;20032;-37
2023/09/02 09:21:17;;;;;;;10.10;9.05;;;20.70;99.90;;;;;;5083409;28;20850;-37
2023/09/02 09:23:43;;;;;;;11.15;9.23;;;20.70;99.90;;;;;;5084896;28;20031;-37
2023/09/02 09:26:11;;;;;;;10.23;8.95;;;20.80;99.90;;;;;;5084781;28;20020;-37
2023/09/02 09:28:58;;;;;;;9.13;8.18;;;20.80;99.90;;;;;;5085222;28;20050;-37
2023/09/02 09:31:27;;;;;;;8.85;7.55;;;20.80;99.90;;;;;;5084511;28;20047;-34
2023/09/02 09:34:01;;;;;;;8.20;7.40;;;20.80;99.90;;;;;;5085019;28;20042;-35
2023/09/02 09:36:28;;;;;;;8.18;7.38;;;20.90;99.90;;;;;;5084330;28;20459;-36
2023/09/02 09:38:58;;;;;;;9.00;8.18;;;20.90;99.90;;;;;;5083816;28;20024;-36
2023/09/02 09:41:25;;;;;;;9.73;8.55;;;20.90;99.90;;;;;;5085068;28;20028;-36
2023/09/02 09:44:07;;;;;;;8.77;7.88;;;20.90;99.90;;;;;;5085190;28;20111;-36
2023/09/02 09:46:56;;;;;;;8.25;7.45;;;20.80;99.90;;;;;;5084073;28;20081;-35
2023/09/02 09:49:34;;;;;;;8.65;7.75;;;20.90;99.90;;;;;;5063913;28;20167;-36
2023/09/02 09:52:00;;;;;;;7.40;6.70;;;20.90;99.90;;;;;;5080588;28;20168;-36
2023/09/02 09:54:37;;;;;;;8.20;7.40;;;20.90;99.90;;;;;;5085237;28;20115;-36
2023/09/02 09:57:05;;;;;;;9.35;8.45;;;20.90;99.90;;;;;;5084264;28;20096;-36
2023/09/02 09:59:31;;;;;;;9.40;8.27;;;21.00;99.90;;;;;;5083736;28;20036;-36
2023/09/02 10:02:07;;;;;;;8.68;7.78;;;21.00;99.90;;;;;;5084625;28;20047;-36
2023/09/02 10:04:36;;;;;;;8.30;7.50;;;21.00;99.90;;;;;;5084477;28;20169;-36
2023/09/02 10:07:03;;;;;;;8.88;8.02;;;21.10;99.90;;;;;;5082833;28;20028;-36
2023/09/02 10:09:47;;;;;;;8.30;7.45;;;21.10;99.90;;;;;;5085290;28;20150;-43
2023/09/02 10:12:15;;;;;;;9.02;8.13;;;21.20;99.90;;;;;;5084478;28;20061;-37
2023/09/02 10:14:42;;;;;;;9.00;8.10;;;21.30;99.90;;;;;;5084118;28;20107;-35
2023/09/02 10:17:09;;;;;;;8.57;7.72;;;21.40;99.90;;;;;;5083566;28;20106;-38
2023/09/02 10:19:35;;;;;;;8.45;7.60;;;21.40;99.90;;;;;;5085044;28;20441;-35
2023/09/02 10:22:03;;;;;;;9.40;8.40;;;21.50;99.90;;;;;;5083266;28;20464;-36
2023/09/02 10:24:41;;;;;;;8.65;7.80;;;21.50;99.90;;;;;;5084695;28;20031;-36
2023/09/02 10:27:14;;;;;;;7.88;7.15;;;21.50;99.90;;;;;;5083226;28;20402;-36
2023/09/02 10:29:43;;;;;;;6.95;6.32;;;21.50;99.90;;;;;;5084854;28;20038;-37
2023/09/02 10:32:15;;;;;;;7.68;6.88;;;21.60;99.90;;;;;;5083857;28;20348;-36
2023/09/02 10:35:02;;;;;;;7.82;7.13;;;21.50;99.90;;;;;;5084041;28;20089;-36
2023/09/02 10:37:41;;;;;;;6.90;6.30;;;21.60;99.90;;;;;;5084729;28;20024;-35
2023/09/02 10:40:09;;;;;;;7.63;6.20;;;21.60;99.90;;;;;;5083752;28;20040;-36
2023/09/02 10:42:35;;;;;;;7.88;7.07;;;21.70;99.90;;;;;;5083428;28;20562;-37
2023/09/02 10:45:02;;;;;;;7.18;6.55;;;21.70;99.90;;;;;;5087870;28;20048;-37
2023/09/02 10:47:27;;;;;;;6.97;6.28;;;21.80;99.90;;;;;;5088486;28;20052;-36
2023/09/02 10:49:54;;;;;;;6.93;6.28;;;21.80;99.90;;;;;;5088231;28;20016;-45
2023/09/02 10:52:20;;;;;;;6.88;6.28;;;21.80;99.90;;;;;;5087388;28;20036;-37
2023/09/02 10:55:07;;;;;;;6.00;5.50;;;21.80;99.90;;;;;;5088679;28;20031;-40
2023/09/02 10:57:49;;;;;;;6.65;6.05;;;21.80;99.90;;;;;;5088288;28;20109;-35
2023/09/02 11:00:24;;;;;;;6.47;5.88;;;21.70;99.90;;;;;;5076785;28;20391;-36
2023/09/02 11:02:54;;;;;;;6.38;5.88;;;21.70;99.90;;;;;;5087525;28;20023;-35
2023/09/02 11:05:21;;;;;;;6.50;6.00;;;21.60;99.90;;;;;;5086839;28;20028;-36
2023/09/02 11:07:48;;;;;;;6.55;5.97;;;21.60;99.90;;;;;;5088261;28;20070;-35
2023/09/02 11:10:18;;;;;;;5.93;5.43;;;21.60;99.90;;;;;;5086923;28;20032;-36
2023/09/02 11:13:06;;;;;;;6.47;5.97;;;21.60;99.90;;;;;;5088375;28;20120;-36
2023/09/02 11:15:34;;;;;;;6.28;5.68;;;21.70;99.90;;;;;;5086703;28;20044;-39
2023/09/02 11:18:32;;;;;;;5.85;5.35;;;21.70;99.90;;;;;;5086251;28;20483;-37
2023/09/02 11:20:58;;;;;;;5.90;5.40;;;21.70;99.90;;;;;;5076963;28;20615;-36
2023/09/02 11:23:24;;;;;;;5.45;5.05;;;21.80;99.90;;;;;;5087034;28;20143;-35
2023/09/02 11:26:06;;;;;;;5.63;5.13;;;21.80;99.90;;;;;;5087501;28;20550;-35
2023/09/02 11:28:32;;;;;;;5.00;4.60;;;21.80;99.90;;;;;;5087840;28;20040;-36
2023/09/02 11:31:14;;;;;;;5.18;4.78;;;21.80;99.90;;;;;;5086521;28;20078;-36
2023/09/02 11:33:40;;;;;;;;;;;21.90;99.90;;;;;;5088127;28;20024;-36
2023/09/02 11:36:18;;;;;;;5.93;5.43;;;22.10;99.90;;;;;;5087208;28;20347;-36
2023/09/02 11:38:44;;;;;;;5.90;5.32;;;22.10;99.90;;;;;;5087162;28;20023;-37
2023/09/02 11:41:22;;;;;;;6.15;5.63;;;22.00;99.90;;;;;;5086743;28;20012;-36
2023/09/02 11:43:50;;;;;;;5.85;5.00;;;22.00;99.90;;;;;;5087326;28;20032;-37
2023/09/02 11:46:16;;;;;;;5.32;4.93;;;22.00;99.90;;;;;;5086193;28;20016;-37
2023/09/02 11:48:41;;;;;;;5.45;4.95;;;21.90;99.90;;;;;;5087383;28;20028;-38
2023/09/02 11:51:11;;;;;;;5.10;4.70;;;22.00;99.90;;;;;;5086703;28;20521;-36
2023/09/02 11:53:36;;;;;;;5.43;5.00;;;22.00;99.90;;;;;;5086517;28;20024;-37
2023/09/02 11:56:02;;;;;;;5.60;5.13;;;22.00;99.90;;;;;;5085800;28;20028;-36
2023/09/02 11:58:28;;;;;;;5.78;5.18;;;22.10;99.90;;;;;;5086633;28;20012;-39
2023/09/02 12:00:54;;;;;;;5.30;4.90;;;22.10;99.90;;;;;;5086683;28;20088;-36
2023/09/02 12:03:33;;;;;;;5.00;4.60;;;22.20;99.90;;;;;;5086334;28;20106;-37
2023/09/02 12:06:01;;;;;;;4.72;4.35;;;22.20;99.90;;;;;;5085694;28;20490;-35
2023/09/02 12:08:29;;;;;;;4.93;4.53;;;22.40;99.90;;;;;;5086692;28;20032;-35
2023/09/02 12:11:02;;;;;;;4.28;3.88;;;22.50;99.90;;;;;;5086189;28;20043;-35
2023/09/02 12:13:29;;;;;;;4.40;4.10;;;22.60;99.90;;;;;;5085935;28;20028;-36
2023/09/02 12:15:55;;;;;;;4.53;4.13;;;22.60;99.90;;;;;;5086276;28;20020;-36
2023/09/02 12:18:22;;;;;;;4.80;4.43;;;22.60;99.90;;;;;;5085705;28;20028;-35
2023/09/02 12:21:09;;;;;;;4.82;4.43;;;22.50;99.90;;;;;;5086322;28;20027;-36
2023/09/02 12:23:35;;;;;;;4.35;3.95;;;22.40;99.90;;;;;;5086351;28;20035;-35
2023/09/02 12:26:05;;;;;;;4.72;4.32;;;22.30;99.90;;;;;;5085504;28;20023;-37
2023/09/02 12:28:31;;;;;;;5.00;4.60;;;22.30;99.90;;;;;;5086269;28;20372;-36
2023/09/02 12:30:57;;;;;;;4.20;3.80;;;22.40;99.90;;;;;;5085734;28;20022;-37
2023/09/02 12:33:23;;;;;;;4.13;3.83;;;22.50;99.90;;;;;;5086261;28;20033;-35
2023/09/02 12:35:49;;;;;;;3.55;3.25;;;22.60;99.90;;;;;;5085603;28;20484;-37
2023/09/02 12:38:15;;;;;;;3.90;3.60;;;22.80;99.90;;;;;;5085688;28;20024;-36
2023/09/02 12:40:52;;;;;;;4.55;4.15;;;22.90;99.90;;;;;;5085145;28;20464;-35